Motegi, Japan
Current Conditions -  °F | °C
As of 12:00 AM on Saturday 20 Dec 2014 (Local Time) from RJAH Reporting Station
Broken Clouds Broken Clouds  
Wind Chill: 30°   Ceiling: 15000
Heat Index: 30°   Visibility: 6mi
Dew Point: 25°   Wind: 3mph
Humidity: 80%   Direction: 350°N
Pressure: 30.33"   Gusts: NA
Location:  36.53°N, 140.19°E
Report Text: RJAH 191500Z 35003KT 9999 FEW050 BKN150 BKN/// M01/M04 Q1027
Loading
Personal Weather Stations






























Interactive Weather Map New forecast layout! Learn more

10-Day Weather Forecast

Advertisements
Track Severe Weather on mobile